首页
METAR-TAF:

METAR-TAF

机场 :

奧斯塔夫耶沃國際機場

莫斯科, 俄罗斯

纬度: 55-30-42N, 经度: 037-30-26E, 海拔: 173米

当前天气观测

该预报发布于38分钟前的21:00 UTC
风速4节,风向
温度 8°C
湿度 53%
气压 1015 hPa
能见度10公里或以上
1500米以下无云,无积雨云

METAR: UUMO 282100Z 19002MPS CAVOK 08/M01 Q1015 R26/090060 NOSIG RMK QFE746/0994

时间: 00:38 (21:38 UTC)

预报

该预报发布于1小时和52分钟前的19:46 UTC
预报有效从28日的 21点(UTC)到 29日的 06点(UTC)
风速4节,风向
能见度10公里或以上
1500米以下无云,无积雨云

TAF: UUMO 281946Z 2821/2906 17002MPS CAVOK

超过4000个机场的气象观测和天气预报(METAR&TAF报告)。

可查询的气象台以黄色和红色小点在地图上表示。

将鼠标移到小点上方,可查看气象台名称。

然后点击查看天气观测和预报。

如需切换地图:点击带黑十字的绿色按钮放大地图;点击带横线的绿色按钮缩小地图;或者点击绿色箭头查看邻近地区的地图。


METAR-TAF: